sensor_id;sensor_type;location;lat;lon;timestamp;P1;durP1;ratioP1;P2;durP2;ratioP2
51179;SDS011;37243;49.814;8.652;2022-08-14T00:00:48;1.40;;;1.30;;
51179;SDS011;37243;49.814;8.652;2022-08-14T00:03:17;1.20;;;1.20;;
51179;SDS011;37243;49.814;8.652;2022-08-14T00:05:46;1.75;;;1.75;;
51179;SDS011;37243;49.814;8.652;2022-08-14T00:08:15;1.27;;;1.27;;
51179;SDS011;37243;49.814;8.652;2022-08-14T00:10:46;1.38;;;1.38;;
51179;SDS011;37243;49.814;8.652;2022-08-14T00:13:15;1.40;;;1.40;;
51179;SDS011;37243;49.814;8.652;2022-08-14T00:15:48;1.65;;;1.65;;
51179;SDS011;37243;49.814;8.652;2022-08-14T00:18:18;1.50;;;1.50;;
51179;SDS011;37243;49.814;8.652;2022-08-14T00:20:49;1.42;;;1.42;;
51179;SDS011;37243;49.814;8.652;2022-08-14T00:23:17;1.67;;;1.67;;
51179;SDS011;37243;49.814;8.652;2022-08-14T00:25:49;1.60;;;1.60;;
51179;SDS011;37243;49.814;8.652;2022-08-14T00:28:20;1.50;;;1.50;;
51179;SDS011;37243;49.814;8.652;2022-08-14T00:30:50;1.40;;;1.40;;
51179;SDS011;37243;49.814;8.652;2022-08-14T00:33:21;1.60;;;1.60;;
51179;SDS011;37243;49.814;8.652;2022-08-14T00:35:50;1.70;;;1.70;;
51179;SDS011;37243;49.814;8.652;2022-08-14T00:38:19;1.52;;;1.52;;
51179;SDS011;37243;49.814;8.652;2022-08-14T00:40:51;1.60;;;1.60;;
51179;SDS011;37243;49.814;8.652;2022-08-14T00:43:19;1.83;;;1.73;;
51179;SDS011;37243;49.814;8.652;2022-08-14T00:45:48;1.70;;;1.70;;
51179;SDS011;37243;49.814;8.652;2022-08-14T00:48:16;1.63;;;1.63;;
51179;SDS011;37243;49.814;8.652;2022-08-14T00:50:45;1.40;;;1.40;;
51179;SDS011;37243;49.814;8.652;2022-08-14T00:53:13;1.60;;;1.60;;
51179;SDS011;37243;49.814;8.652;2022-08-14T00:55:43;1.65;;;1.65;;
51179;SDS011;37243;49.814;8.652;2022-08-14T00:58:14;1.50;;;1.50;;
51179;SDS011;37243;49.814;8.652;2022-08-14T01:01:00;1.75;;;1.65;;
51179;SDS011;37243;49.814;8.652;2022-08-14T01:03:32;1.52;;;1.52;;
51179;SDS011;37243;49.814;8.652;2022-08-14T01:06:04;2.10;;;2.00;;
51179;SDS011;37243;49.814;8.652;2022-08-14T01:08:34;2.08;;;2.03;;
51179;SDS011;37243;49.814;8.652;2022-08-14T01:11:04;1.70;;;1.70;;
51179;SDS011;37243;49.814;8.652;2022-08-14T01:13:36;1.80;;;1.80;;
51179;SDS011;37243;49.814;8.652;2022-08-14T01:16:07;1.60;;;1.60;;
51179;SDS011;37243;49.814;8.652;2022-08-14T01:18:37;1.70;;;1.70;;
51179;SDS011;37243;49.814;8.652;2022-08-14T01:21:24;1.80;;;1.80;;
51179;SDS011;37243;49.814;8.652;2022-08-14T01:23:58;1.67;;;1.65;;
51179;SDS011;37243;49.814;8.652;2022-08-14T01:26:27;1.65;;;1.65;;
51179;SDS011;37243;49.814;8.652;2022-08-14T01:28:57;1.80;;;1.80;;
51179;SDS011;37243;49.814;8.652;2022-08-14T01:31:29;1.95;;;1.85;;
51179;SDS011;37243;49.814;8.652;2022-08-14T01:34:02;1.75;;;1.75;;
51179;SDS011;37243;49.814;8.652;2022-08-14T01:36:34;1.75;;;1.75;;
51179;SDS011;37243;49.814;8.652;2022-08-14T01:39:04;1.50;;;1.50;;
51179;SDS011;37243;49.814;8.652;2022-08-14T01:41:34;1.83;;;1.73;;
51179;SDS011;37243;49.814;8.652;2022-08-14T01:44:05;1.70;;;1.70;;
51179;SDS011;37243;49.814;8.652;2022-08-14T01:46:37;2.20;;;2.10;;
51179;SDS011;37243;49.814;8.652;2022-08-14T01:49:09;1.77;;;1.77;;
51179;SDS011;37243;49.814;8.652;2022-08-14T01:51:42;2.20;;;2.10;;
51179;SDS011;37243;49.814;8.652;2022-08-14T01:54:12;2.03;;;1.92;;
51179;SDS011;37243;49.814;8.652;2022-08-14T01:56:46;2.03;;;1.92;;
51179;SDS011;37243;49.814;8.652;2022-08-14T01:59:18;1.73;;;1.73;;
51179;SDS011;37243;49.814;8.652;2022-08-14T02:01:49;2.10;;;2.00;;
51179;SDS011;37243;49.814;8.652;2022-08-14T02:04:19;1.90;;;1.90;;
51179;SDS011;37243;49.814;8.652;2022-08-14T02:06:51;2.22;;;2.13;;
51179;SDS011;37243;49.814;8.652;2022-08-14T02:09:19;2.00;;;1.90;;
51179;SDS011;37243;49.814;8.652;2022-08-14T02:11:48;2.03;;;1.92;;
51179;SDS011;37243;49.814;8.652;2022-08-14T02:14:17;2.30;;;2.20;;
51179;SDS011;37243;49.814;8.652;2022-08-14T02:16:48;2.20;;;2.10;;
51179;SDS011;37243;49.814;8.652;2022-08-14T02:19:18;2.00;;;2.00;;
51179;SDS011;37243;49.814;8.652;2022-08-14T02:21:54;2.28;;;2.17;;
51179;SDS011;37243;49.814;8.652;2022-08-14T02:24:24;2.30;;;2.20;;
51179;SDS011;37243;49.814;8.652;2022-08-14T02:26:55;2.08;;;1.98;;
51179;SDS011;37243;49.814;8.652;2022-08-14T02:29:25;1.88;;;1.88;;
51179;SDS011;37243;49.814;8.652;2022-08-14T02:31:57;2.35;;;2.25;;
51179;SDS011;37243;49.814;8.652;2022-08-14T02:34:28;2.50;;;2.40;;
51179;SDS011;37243;49.814;8.652;2022-08-14T02:37:01;2.20;;;2.10;;
51179;SDS011;37243;49.814;8.652;2022-08-14T02:39:34;2.28;;;2.17;;
51179;SDS011;37243;49.814;8.652;2022-08-14T02:42:04;2.30;;;2.20;;
51179;SDS011;37243;49.814;8.652;2022-08-14T02:44:33;2.20;;;2.10;;
51179;SDS011;37243;49.814;8.652;2022-08-14T02:47:03;2.60;;;2.50;;
51179;SDS011;37243;49.814;8.652;2022-08-14T02:49:32;2.20;;;2.10;;
51179;SDS011;37243;49.814;8.652;2022-08-14T02:52:04;2.47;;;2.38;;
51179;SDS011;37243;49.814;8.652;2022-08-14T02:54:34;2.40;;;2.30;;
51179;SDS011;37243;49.814;8.652;2022-08-14T02:57:03;2.00;;;2.00;;
51179;SDS011;37243;49.814;8.652;2022-08-14T02:59:33;2.60;;;2.50;;
51179;SDS011;37243;49.814;8.652;2022-08-14T03:02:03;2.50;;;2.40;;
51179;SDS011;37243;49.814;8.652;2022-08-14T03:04:33;2.30;;;2.20;;
51179;SDS011;37243;49.814;8.652;2022-08-14T03:07:04;2.63;;;2.53;;
51179;SDS011;37243;49.814;8.652;2022-08-14T03:09:33;2.40;;;2.30;;
51179;SDS011;37243;49.814;8.652;2022-08-14T03:12:03;2.40;;;2.30;;
51179;SDS011;37243;49.814;8.652;2022-08-14T03:14:32;2.53;;;2.42;;
51179;SDS011;37243;49.814;8.652;2022-08-14T03:17:03;2.50;;;2.40;;
51179;SDS011;37243;49.814;8.652;2022-08-14T03:19:34;2.72;;;2.63;;
51179;SDS011;37243;49.814;8.652;2022-08-14T03:22:05;2.55;;;2.45;;
51179;SDS011;37243;49.814;8.652;2022-08-14T03:24:34;3.00;;;2.80;;
51179;SDS011;37243;49.814;8.652;2022-08-14T03:27:03;2.55;;;2.45;;
51179;SDS011;37243;49.814;8.652;2022-08-14T03:29:31;2.83;;;2.72;;
51179;SDS011;37243;49.814;8.652;2022-08-14T03:32:00;2.80;;;2.70;;
51179;SDS011;37243;49.814;8.652;2022-08-14T03:34:29;2.80;;;2.70;;
51179;SDS011;37243;49.814;8.652;2022-08-14T03:36:57;2.70;;;2.60;;
51179;SDS011;37243;49.814;8.652;2022-08-14T03:39:28;2.50;;;2.40;;
51179;SDS011;37243;49.814;8.652;2022-08-14T03:41:56;2.70;;;2.60;;
51179;SDS011;37243;49.814;8.652;2022-08-14T03:44:25;2.92;;;2.83;;
51179;SDS011;37243;49.814;8.652;2022-08-14T03:46:53;3.05;;;2.85;;
51179;SDS011;37243;49.814;8.652;2022-08-14T03:49:21;2.83;;;2.72;;
51179;SDS011;37243;49.814;8.652;2022-08-14T03:51:50;2.83;;;2.72;;
51179;SDS011;37243;49.814;8.652;2022-08-14T03:54:18;2.92;;;2.83;;
51179;SDS011;37243;49.814;8.652;2022-08-14T03:56:51;2.90;;;2.80;;
51179;SDS011;37243;49.814;8.652;2022-08-14T03:59:24;3.25;;;3.05;;
51179;SDS011;37243;49.814;8.652;2022-08-14T04:01:53;2.95;;;2.85;;
51179;SDS011;37243;49.814;8.652;2022-08-14T04:04:21;3.10;;;3.00;;
51179;SDS011;37243;49.814;8.652;2022-08-14T04:06:49;2.75;;;2.65;;
51179;SDS011;37243;49.814;8.652;2022-08-14T04:09:18;2.78;;;2.67;;
51179;SDS011;37243;49.814;8.652;2022-08-14T04:11:46;2.70;;;2.60;;
51179;SDS011;37243;49.814;8.652;2022-08-14T04:14:17;2.80;;;2.70;;
51179;SDS011;37243;49.814;8.652;2022-08-14T04:16:45;3.03;;;2.92;;
51179;SDS011;37243;49.814;8.652;2022-08-14T04:19:14;2.70;;;2.60;;
51179;SDS011;37243;49.814;8.652;2022-08-14T04:21:47;2.65;;;2.55;;
51179;SDS011;37243;49.814;8.652;2022-08-14T04:24:16;3.03;;;2.92;;
51179;SDS011;37243;49.814;8.652;2022-08-14T04:26:44;2.80;;;2.70;;
51179;SDS011;37243;49.814;8.652;2022-08-14T04:29:12;3.05;;;2.95;;
51179;SDS011;37243;49.814;8.652;2022-08-14T04:31:43;3.20;;;3.10;;
51179;SDS011;37243;49.814;8.652;2022-08-14T04:34:15;3.05;;;2.95;;
51179;SDS011;37243;49.814;8.652;2022-08-14T04:36:43;2.83;;;2.72;;
51179;SDS011;37243;49.814;8.652;2022-08-14T04:39:24;2.75;;;2.65;;
51179;SDS011;37243;49.814;8.652;2022-08-14T04:42:05;3.10;;;2.92;;
51179;SDS011;37243;49.814;8.652;2022-08-14T04:44:46;2.97;;;2.88;;
51179;SDS011;37243;49.814;8.652;2022-08-14T04:47:17;3.03;;;2.92;;
51179;SDS011;37243;49.814;8.652;2022-08-14T04:50:04;3.08;;;2.97;;
51179;SDS011;37243;49.814;8.652;2022-08-14T04:52:33;3.50;;;3.33;;
51179;SDS011;37243;49.814;8.652;2022-08-14T04:55:01;3.30;;;3.20;;
51179;SDS011;37243;49.814;8.652;2022-08-14T04:57:30;3.08;;;2.97;;
51179;SDS011;37243;49.814;8.652;2022-08-14T04:59:58;3.15;;;3.05;;
51179;SDS011;37243;49.814;8.652;2022-08-14T05:02:29;3.00;;;2.90;;
51179;SDS011;37243;49.814;8.652;2022-08-14T05:04:58;3.22;;;3.13;;
51179;SDS011;37243;49.814;8.652;2022-08-14T05:07:26;3.30;;;3.20;;
51179;SDS011;37243;49.814;8.652;2022-08-14T05:09:55;3.70;;;3.50;;
51179;SDS011;37243;49.814;8.652;2022-08-14T05:12:23;3.40;;;3.20;;
51179;SDS011;37243;49.814;8.652;2022-08-14T05:14:53;3.30;;;3.20;;
51179;SDS011;37243;49.814;8.652;2022-08-14T05:17:21;3.38;;;3.17;;
51179;SDS011;37243;49.814;8.652;2022-08-14T05:19:53;3.22;;;3.13;;
51179;SDS011;37243;49.814;8.652;2022-08-14T05:22:22;3.33;;;3.22;;
51179;SDS011;37243;49.814;8.652;2022-08-14T05:24:50;3.13;;;3.03;;
51179;SDS011;37243;49.814;8.652;2022-08-14T05:27:18;3.20;;;3.08;;
51179;SDS011;37243;49.814;8.652;2022-08-14T05:29:47;3.33;;;3.22;;
51179;SDS011;37243;49.814;8.652;2022-08-14T05:32:15;3.30;;;3.10;;
51179;SDS011;37243;49.814;8.652;2022-08-14T05:34:44;3.15;;;3.05;;
51179;SDS011;37243;49.814;8.652;2022-08-14T05:37:15;3.55;;;3.35;;
51179;SDS011;37243;49.814;8.652;2022-08-14T05:39:43;3.67;;;3.47;;
51179;SDS011;37243;49.814;8.652;2022-08-14T05:42:11;3.35;;;3.20;;
51179;SDS011;37243;49.814;8.652;2022-08-14T05:44:41;3.35;;;3.15;;
51179;SDS011;37243;49.814;8.652;2022-08-14T05:47:09;3.58;;;3.40;;
51179;SDS011;37243;49.814;8.652;2022-08-14T05:49:37;3.67;;;3.47;;
51179;SDS011;37243;49.814;8.652;2022-08-14T05:52:06;3.17;;;3.08;;
51179;SDS011;37243;49.814;8.652;2022-08-14T05:54:36;3.60;;;3.45;;
51179;SDS011;37243;49.814;8.652;2022-08-14T05:57:05;3.42;;;3.33;;
51179;SDS011;37243;49.814;8.652;2022-08-14T05:59:33;3.38;;;3.20;;
51179;SDS011;37243;49.814;8.652;2022-08-14T06:02:02;3.33;;;3.15;;
51179;SDS011;37243;49.814;8.652;2022-08-14T06:04:30;3.67;;;3.47;;
51179;SDS011;37243;49.814;8.652;2022-08-14T06:06:58;3.60;;;3.40;;
51179;SDS011;37243;49.814;8.652;2022-08-14T06:09:27;3.42;;;3.28;;
51179;SDS011;37243;49.814;8.652;2022-08-14T06:11:58;3.10;;;3.00;;
51179;SDS011;37243;49.814;8.652;2022-08-14T06:14:26;3.33;;;3.17;;
51179;SDS011;37243;49.814;8.652;2022-08-14T06:16:55;3.40;;;3.30;;
51179;SDS011;37243;49.814;8.652;2022-08-14T06:19:23;3.28;;;3.17;;
51179;SDS011;37243;49.814;8.652;2022-08-14T06:21:51;3.03;;;2.92;;
51179;SDS011;37243;49.814;8.652;2022-08-14T06:24:20;3.60;;;3.50;;
51179;SDS011;37243;49.814;8.652;2022-08-14T06:26:48;3.20;;;3.10;;
51179;SDS011;37243;49.814;8.652;2022-08-14T06:29:19;3.58;;;3.47;;
51179;SDS011;37243;49.814;8.652;2022-08-14T06:31:48;3.60;;;3.50;;
51179;SDS011;37243;49.814;8.652;2022-08-14T06:34:16;3.80;;;3.60;;
51179;SDS011;37243;49.814;8.652;2022-08-14T06:36:44;3.50;;;3.40;;
51179;SDS011;37243;49.814;8.652;2022-08-14T06:39:13;3.80;;;3.60;;
51179;SDS011;37243;49.814;8.652;2022-08-14T06:41:41;3.50;;;3.30;;
51179;SDS011;37243;49.814;8.652;2022-08-14T06:44:09;3.65;;;3.45;;
51179;SDS011;37243;49.814;8.652;2022-08-14T06:46:40;3.28;;;3.17;;
51179;SDS011;37243;49.814;8.652;2022-08-14T06:49:09;3.30;;;3.20;;
51179;SDS011;37243;49.814;8.652;2022-08-14T06:51:37;3.28;;;3.17;;
51179;SDS011;37243;49.814;8.652;2022-08-14T06:54:10;3.30;;;3.20;;
51179;SDS011;37243;49.814;8.652;2022-08-14T06:56:39;3.28;;;3.13;;
51179;SDS011;37243;49.814;8.652;2022-08-14T06:59:07;3.10;;;3.00;;
51179;SDS011;37243;49.814;8.652;2022-08-14T07:01:35;3.58;;;3.45;;
51179;SDS011;37243;49.814;8.652;2022-08-14T07:04:19;3.80;;;3.60;;
51179;SDS011;37243;49.814;8.652;2022-08-14T07:07:00;3.13;;;3.03;;
51179;SDS011;37243;49.814;8.652;2022-08-14T07:09:28;3.17;;;3.08;;
51179;SDS011;37243;49.814;8.652;2022-08-14T07:11:56;3.50;;;3.40;;
51179;SDS011;37243;49.814;8.652;2022-08-14T07:14:25;3.47;;;3.38;;
51179;SDS011;37243;49.814;8.652;2022-08-14T07:16:53;3.53;;;3.42;;
51179;SDS011;37243;49.814;8.652;2022-08-14T07:19:24;3.53;;;3.42;;
51179;SDS011;37243;49.814;8.652;2022-08-14T07:21:52;3.70;;;3.50;;
51179;SDS011;37243;49.814;8.652;2022-08-14T07:24:21;3.30;;;3.20;;
51179;SDS011;37243;49.814;8.652;2022-08-14T07:26:49;3.28;;;3.17;;
51179;SDS011;37243;49.814;8.652;2022-08-14T07:29:18;3.90;;;3.72;;
51179;SDS011;37243;49.814;8.652;2022-08-14T07:31:46;3.63;;;3.42;;
51179;SDS011;37243;49.814;8.652;2022-08-14T07:34:14;2.95;;;2.85;;
51179;SDS011;37243;49.814;8.652;2022-08-14T07:36:45;3.40;;;3.30;;
51179;SDS011;37243;49.814;8.652;2022-08-14T07:39:14;3.75;;;3.55;;
51179;SDS011;37243;49.814;8.652;2022-08-14T07:41:42;3.40;;;3.30;;
51179;SDS011;37243;49.814;8.652;2022-08-14T07:44:11;3.35;;;3.15;;
51179;SDS011;37243;49.814;8.652;2022-08-14T07:46:39;3.22;;;3.13;;
51179;SDS011;37243;49.814;8.652;2022-08-14T07:49:07;3.70;;;3.50;;
51179;SDS011;37243;49.814;8.652;2022-08-14T07:51:36;3.58;;;3.40;;
51179;SDS011;37243;49.814;8.652;2022-08-14T07:54:08;3.20;;;3.10;;
51179;SDS011;37243;49.814;8.652;2022-08-14T07:56:36;3.90;;;3.70;;
51179;SDS011;37243;49.814;8.652;2022-08-14T07:59:05;3.80;;;3.60;;
51179;SDS011;37243;49.814;8.652;2022-08-14T08:01:33;3.70;;;3.50;;
51179;SDS011;37243;49.814;8.652;2022-08-14T08:04:02;3.90;;;3.70;;
51179;SDS011;37243;49.814;8.652;2022-08-14T08:06:31;3.30;;;3.20;;
51179;SDS011;37243;49.814;8.652;2022-08-14T08:08:59;3.33;;;3.22;;
51179;SDS011;37243;49.814;8.652;2022-08-14T08:11:33;3.53;;;3.42;;
51179;SDS011;37243;49.814;8.652;2022-08-14T08:14:03;3.28;;;3.17;;
51179;SDS011;37243;49.814;8.652;2022-08-14T08:16:34;3.53;;;3.33;;
51179;SDS011;37243;49.814;8.652;2022-08-14T08:19:03;3.40;;;3.30;;
51179;SDS011;37243;49.814;8.652;2022-08-14T08:21:36;3.60;;;3.40;;
51179;SDS011;37243;49.814;8.652;2022-08-14T08:24:06;3.60;;;3.50;;
51179;SDS011;37243;49.814;8.652;2022-08-14T08:26:37;3.58;;;3.47;;
51179;SDS011;37243;49.814;8.652;2022-08-14T08:29:05;3.33;;;3.22;;
51179;SDS011;37243;49.814;8.652;2022-08-14T08:31:44;3.67;;;3.47;;
51179;SDS011;37243;49.814;8.652;2022-08-14T08:34:14;3.40;;;3.30;;
51179;SDS011;37243;49.814;8.652;2022-08-14T08:36:43;3.20;;;3.10;;
51179;SDS011;37243;49.814;8.652;2022-08-14T08:39:12;3.40;;;3.30;;
51179;SDS011;37243;49.814;8.652;2022-08-14T08:41:44;3.35;;;3.25;;
51179;SDS011;37243;49.814;8.652;2022-08-14T08:44:13;3.53;;;3.42;;
51179;SDS011;37243;49.814;8.652;2022-08-14T08:46:42;3.03;;;2.92;;
51179;SDS011;37243;49.814;8.652;2022-08-14T08:49:11;3.58;;;3.47;;
51179;SDS011;37243;49.814;8.652;2022-08-14T08:51:39;3.33;;;3.22;;
51179;SDS011;37243;49.814;8.652;2022-08-14T08:54:08;3.47;;;3.38;;
51179;SDS011;37243;49.814;8.652;2022-08-14T08:56:38;3.60;;;3.40;;
51179;SDS011;37243;49.814;8.652;2022-08-14T08:59:20;3.47;;;3.38;;
51179;SDS011;37243;49.814;8.652;2022-08-14T09:01:50;3.00;;;2.90;;
51179;SDS011;37243;49.814;8.652;2022-08-14T09:04:22;3.40;;;3.30;;
51179;SDS011;37243;49.814;8.652;2022-08-14T09:06:51;3.45;;;3.35;;
51179;SDS011;37243;49.814;8.652;2022-08-14T09:09:21;3.15;;;3.05;;
51179;SDS011;37243;49.814;8.652;2022-08-14T09:11:50;3.50;;;3.30;;
51179;SDS011;37243;49.814;8.652;2022-08-14T09:14:23;3.17;;;3.08;;
51179;SDS011;37243;49.814;8.652;2022-08-14T09:16:53;3.60;;;3.40;;
51179;SDS011;37243;49.814;8.652;2022-08-14T09:19:23;3.03;;;2.92;;
51179;SDS011;37243;49.814;8.652;2022-08-14T09:21:52;3.08;;;2.97;;
51179;SDS011;37243;49.814;8.652;2022-08-14T09:24:20;3.20;;;3.10;;
51179;SDS011;37243;49.814;8.652;2022-08-14T09:26:49;3.40;;;3.30;;
51179;SDS011;37243;49.814;8.652;2022-08-14T09:29:17;3.17;;;3.08;;
51179;SDS011;37243;49.814;8.652;2022-08-14T09:31:49;3.28;;;3.17;;
51179;SDS011;37243;49.814;8.652;2022-08-14T09:34:21;3.40;;;3.30;;
51179;SDS011;37243;49.814;8.652;2022-08-14T09:37:10;3.40;;;3.20;;
51179;SDS011;37243;49.814;8.652;2022-08-14T09:39:59;3.58;;;3.40;;
51179;SDS011;37243;49.814;8.652;2022-08-14T09:42:38;3.25;;;3.15;;
51179;SDS011;37243;49.814;8.652;2022-08-14T09:45:15;3.13;;;3.03;;
51179;SDS011;37243;49.814;8.652;2022-08-14T09:47:49;3.08;;;2.97;;
51179;SDS011;37243;49.814;8.652;2022-08-14T09:50:23;3.05;;;2.95;;
51179;SDS011;37243;49.814;8.652;2022-08-14T09:52:55;3.13;;;3.03;;
51179;SDS011;37243;49.814;8.652;2022-08-14T09:55:26;3.10;;;3.00;;
51179;SDS011;37243;49.814;8.652;2022-08-14T09:58:05;3.40;;;3.30;;
51179;SDS011;37243;49.814;8.652;2022-08-14T10:00:43;2.85;;;2.75;;
51179;SDS011;37243;49.814;8.652;2022-08-14T10:03:26;3.10;;;3.00;;
51179;SDS011;37243;49.814;8.652;2022-08-14T10:06:04;3.40;;;3.20;;
51179;SDS011;37243;49.814;8.652;2022-08-14T10:08:40;3.08;;;2.97;;
51179;SDS011;37243;49.814;8.652;2022-08-14T10:11:16;3.08;;;2.97;;
51179;SDS011;37243;49.814;8.652;2022-08-14T10:13:47;2.88;;;2.78;;
51179;SDS011;37243;49.814;8.652;2022-08-14T10:16:18;3.28;;;3.17;;
51179;SDS011;37243;49.814;8.652;2022-08-14T10:18:59;3.38;;;3.28;;
51179;SDS011;37243;49.814;8.652;2022-08-14T10:21:29;2.92;;;2.83;;
51179;SDS011;37243;49.814;8.652;2022-08-14T10:23:57;2.83;;;2.72;;
51179;SDS011;37243;49.814;8.652;2022-08-14T10:26:26;2.70;;;2.60;;
51179;SDS011;37243;49.814;8.652;2022-08-14T10:29:02;2.80;;;2.70;;
51179;SDS011;37243;49.814;8.652;2022-08-14T10:31:33;2.75;;;2.65;;
51179;SDS011;37243;49.814;8.652;2022-08-14T10:34:06;2.95;;;2.85;;
51179;SDS011;37243;49.814;8.652;2022-08-14T10:36:37;3.00;;;2.90;;
51179;SDS011;37243;49.814;8.652;2022-08-14T10:39:15;3.13;;;3.00;;
51179;SDS011;37243;49.814;8.652;2022-08-14T10:41:46;3.20;;;3.10;;
51179;SDS011;37243;49.814;8.652;2022-08-14T10:44:17;2.67;;;2.58;;
51179;SDS011;37243;49.814;8.652;2022-08-14T10:46:50;2.88;;;2.78;;
51179;SDS011;37243;49.814;8.652;2022-08-14T10:49:29;3.17;;;3.08;;
51179;SDS011;37243;49.814;8.652;2022-08-14T10:51:59;2.75;;;2.65;;
51179;SDS011;37243;49.814;8.652;2022-08-14T10:56:58;2.90;;;2.80;;
51179;SDS011;37243;49.814;8.652;2022-08-14T10:59:41;2.72;;;2.63;;
51179;SDS011;37243;49.814;8.652;2022-08-14T11:02:16;2.88;;;2.78;;
51179;SDS011;37243;49.814;8.652;2022-08-14T11:04:59;2.80;;;2.70;;
51179;SDS011;37243;49.814;8.652;2022-08-14T11:07:29;2.88;;;2.78;;
51179;SDS011;37243;49.814;8.652;2022-08-14T11:09:59;2.35;;;2.25;;
51179;SDS011;37243;49.814;8.652;2022-08-14T11:12:38;3.00;;;2.90;;
51179;SDS011;37243;49.814;8.652;2022-08-14T11:15:12;2.70;;;2.60;;
51179;SDS011;37243;49.814;8.652;2022-08-14T11:17:45;2.90;;;2.80;;
51179;SDS011;37243;49.814;8.652;2022-08-14T11:20:18;2.78;;;2.67;;
51179;SDS011;37243;49.814;8.652;2022-08-14T11:22:49;2.63;;;2.53;;
51179;SDS011;37243;49.814;8.652;2022-08-14T11:25:19;2.50;;;2.40;;
51179;SDS011;37243;49.814;8.652;2022-08-14T11:27:52;2.50;;;2.40;;
51179;SDS011;37243;49.814;8.652;2022-08-14T11:30:22;2.70;;;2.60;;
51179;SDS011;37243;49.814;8.652;2022-08-14T11:32:52;2.75;;;2.65;;
51179;SDS011;37243;49.814;8.652;2022-08-14T11:35:24;2.65;;;2.55;;
51179;SDS011;37243;49.814;8.652;2022-08-14T11:37:55;2.60;;;2.50;;
51179;SDS011;37243;49.814;8.652;2022-08-14T11:40:26;2.70;;;2.60;;
51179;SDS011;37243;49.814;8.652;2022-08-14T11:42:59;2.60;;;2.50;;
51179;SDS011;37243;49.814;8.652;2022-08-14T11:45:29;2.60;;;2.50;;
51179;SDS011;37243;49.814;8.652;2022-08-14T11:47:59;2.80;;;2.70;;
51179;SDS011;37243;49.814;8.652;2022-08-14T11:50:32;2.60;;;2.50;;
51179;SDS011;37243;49.814;8.652;2022-08-14T11:53:01;2.63;;;2.53;;
51179;SDS011;37243;49.814;8.652;2022-08-14T11:55:32;2.65;;;2.55;;
51179;SDS011;37243;49.814;8.652;2022-08-14T11:58:03;2.72;;;2.63;;
51179;SDS011;37243;49.814;8.652;2022-08-14T12:00:33;2.63;;;2.53;;
51179;SDS011;37243;49.814;8.652;2022-08-14T12:03:13;2.58;;;2.47;;
51179;SDS011;37243;49.814;8.652;2022-08-14T12:05:44;2.60;;;2.50;;
51179;SDS011;37243;49.814;8.652;2022-08-14T12:08:12;2.53;;;2.42;;
51179;SDS011;37243;49.814;8.652;2022-08-14T12:10:41;2.70;;;2.60;;
51179;SDS011;37243;49.814;8.652;2022-08-14T12:13:11;2.58;;;2.47;;
51179;SDS011;37243;49.814;8.652;2022-08-14T12:15:42;2.50;;;2.40;;
51179;SDS011;37243;49.814;8.652;2022-08-14T12:18:11;2.60;;;2.50;;
51179;SDS011;37243;49.814;8.652;2022-08-14T12:20:40;2.65;;;2.55;;
51179;SDS011;37243;49.814;8.652;2022-08-14T12:23:21;2.20;;;2.10;;
51179;SDS011;37243;49.814;8.652;2022-08-14T12:26:00;2.40;;;2.30;;
51179;SDS011;37243;49.814;8.652;2022-08-14T12:28:30;2.40;;;2.30;;
51179;SDS011;37243;49.814;8.652;2022-08-14T12:30:59;2.45;;;2.35;;
51179;SDS011;37243;49.814;8.652;2022-08-14T12:33:28;2.38;;;2.17;;
51179;SDS011;37243;49.814;8.652;2022-08-14T12:35:58;2.40;;;2.30;;
51179;SDS011;37243;49.814;8.652;2022-08-14T12:38:34;2.50;;;2.40;;
51179;SDS011;37243;49.814;8.652;2022-08-14T12:41:08;2.40;;;2.30;;
51179;SDS011;37243;49.814;8.652;2022-08-14T12:43:44;2.60;;;2.50;;
51179;SDS011;37243;49.814;8.652;2022-08-14T12:46:22;2.60;;;2.50;;
51179;SDS011;37243;49.814;8.652;2022-08-14T12:48:51;2.00;;;2.00;;
51179;SDS011;37243;49.814;8.652;2022-08-14T12:51:21;2.50;;;2.40;;
51179;SDS011;37243;49.814;8.652;2022-08-14T12:53:55;2.50;;;2.40;;
51179;SDS011;37243;49.814;8.652;2022-08-14T12:56:24;2.40;;;2.30;;
51179;SDS011;37243;49.814;8.652;2022-08-14T12:58:53;2.20;;;2.15;;
51179;SDS011;37243;49.814;8.652;2022-08-14T13:01:23;2.15;;;2.10;;
51179;SDS011;37243;49.814;8.652;2022-08-14T13:04:04;2.38;;;2.28;;
51179;SDS011;37243;49.814;8.652;2022-08-14T13:06:34;2.20;;;2.10;;
51179;SDS011;37243;49.814;8.652;2022-08-14T13:09:06;2.17;;;2.08;;
51179;SDS011;37243;49.814;8.652;2022-08-14T13:11:37;2.20;;;2.10;;
51179;SDS011;37243;49.814;8.652;2022-08-14T13:14:08;2.30;;;2.20;;
51179;SDS011;37243;49.814;8.652;2022-08-14T13:16:38;2.20;;;2.10;;
51179;SDS011;37243;49.814;8.652;2022-08-14T13:19:07;2.30;;;2.20;;
51179;SDS011;37243;49.814;8.652;2022-08-14T13:21:40;2.30;;;2.20;;
51179;SDS011;37243;49.814;8.652;2022-08-14T13:24:12;2.38;;;2.28;;
51179;SDS011;37243;49.814;8.652;2022-08-14T13:26:41;2.30;;;2.20;;
51179;SDS011;37243;49.814;8.652;2022-08-14T13:29:12;2.30;;;2.20;;
51179;SDS011;37243;49.814;8.652;2022-08-14T13:31:42;2.30;;;2.20;;
51179;SDS011;37243;49.814;8.652;2022-08-14T13:34:13;2.17;;;2.08;;
51179;SDS011;37243;49.814;8.652;2022-08-14T13:36:42;2.20;;;2.15;;
51179;SDS011;37243;49.814;8.652;2022-08-14T13:39:15;2.10;;;2.00;;
51179;SDS011;37243;49.814;8.652;2022-08-14T13:41:44;2.30;;;2.20;;
51179;SDS011;37243;49.814;8.652;2022-08-14T13:44:13;2.60;;;2.50;;
51179;SDS011;37243;49.814;8.652;2022-08-14T13:46:43;2.38;;;2.28;;
51179;SDS011;37243;49.814;8.652;2022-08-14T13:49:11;2.40;;;2.30;;
51179;SDS011;37243;49.814;8.652;2022-08-14T13:51:42;2.08;;;2.03;;
51179;SDS011;37243;49.814;8.652;2022-08-14T13:54:18;2.40;;;2.30;;
51179;SDS011;37243;49.814;8.652;2022-08-14T13:56:49;2.30;;;2.20;;
51179;SDS011;37243;49.814;8.652;2022-08-14T13:59:18;2.28;;;2.17;;
51179;SDS011;37243;49.814;8.652;2022-08-14T14:01:46;2.20;;;2.10;;
51179;SDS011;37243;49.814;8.652;2022-08-14T14:04:17;2.15;;;2.10;;
51179;SDS011;37243;49.814;8.652;2022-08-14T14:06:46;2.30;;;2.20;;
51179;SDS011;37243;49.814;8.652;2022-08-14T14:09:20;2.33;;;2.22;;
51179;SDS011;37243;49.814;8.652;2022-08-14T14:11:53;2.10;;;2.00;;
51179;SDS011;37243;49.814;8.652;2022-08-14T14:14:25;1.95;;;1.95;;
51179;SDS011;37243;49.814;8.652;2022-08-14T14:16:54;2.20;;;2.10;;
51179;SDS011;37243;49.814;8.652;2022-08-14T14:19:22;2.42;;;2.33;;
51179;SDS011;37243;49.814;8.652;2022-08-14T14:21:52;1.88;;;1.88;;
51179;SDS011;37243;49.814;8.652;2022-08-14T14:24:24;2.28;;;2.17;;
51179;SDS011;37243;49.814;8.652;2022-08-14T14:26:52;2.08;;;2.08;;
51179;SDS011;37243;49.814;8.652;2022-08-14T14:29:25;2.15;;;2.05;;
51179;SDS011;37243;49.814;8.652;2022-08-14T14:31:57;2.30;;;2.20;;
51179;SDS011;37243;49.814;8.652;2022-08-14T14:34:28;2.28;;;2.17;;
51179;SDS011;37243;49.814;8.652;2022-08-14T14:36:58;2.00;;;2.00;;
51179;SDS011;37243;49.814;8.652;2022-08-14T14:39:32;2.13;;;2.10;;
51179;SDS011;37243;49.814;8.652;2022-08-14T14:42:01;2.08;;;2.08;;
51179;SDS011;37243;49.814;8.652;2022-08-14T14:44:32;2.13;;;2.05;;
51179;SDS011;37243;49.814;8.652;2022-08-14T14:47:06;2.15;;;2.10;;
51179;SDS011;37243;49.814;8.652;2022-08-14T14:49:35;2.05;;;2.05;;
51179;SDS011;37243;49.814;8.652;2022-08-14T14:52:04;2.28;;;2.17;;
51179;SDS011;37243;49.814;8.652;2022-08-14T14:54:37;2.20;;;2.10;;
51179;SDS011;37243;49.814;8.652;2022-08-14T14:57:08;2.20;;;2.10;;
51179;SDS011;37243;49.814;8.652;2022-08-14T14:59:38;1.95;;;1.90;;
51179;SDS011;37243;49.814;8.652;2022-08-14T15:02:07;2.22;;;2.13;;
51179;SDS011;37243;49.814;8.652;2022-08-14T15:04:40;2.22;;;2.13;;
51179;SDS011;37243;49.814;8.652;2022-08-14T15:07:10;2.40;;;2.30;;
51179;SDS011;37243;49.814;8.652;2022-08-14T15:09:43;2.13;;;2.03;;
51179;SDS011;37243;49.814;8.652;2022-08-14T15:12:11;2.20;;;2.10;;